sensor_id;sensor_type;location;lat;lon;timestamp;pressure;altitude;pressure_sealevel;temperature;humidity
18201;BME280;9226;47.858;9.594;2023-04-24T00:00:30;94370.34;;;11.01;87.42
18201;BME280;9226;47.858;9.594;2023-04-24T00:02:56;94367.75;;;11.10;86.85
18201;BME280;9226;47.858;9.594;2023-04-24T00:05:23;94367.00;;;11.17;86.07
18201;BME280;9226;47.858;9.594;2023-04-24T00:07:49;94359.13;;;11.08;86.76
18201;BME280;9226;47.858;9.594;2023-04-24T00:10:17;94365.25;;;11.08;86.96
18201;BME280;9226;47.858;9.594;2023-04-24T00:12:43;94360.09;;;11.07;86.55
18201;BME280;9226;47.858;9.594;2023-04-24T00:15:09;94362.44;;;11.10;86.37
18201;BME280;9226;47.858;9.594;2023-04-24T00:17:34;94362.53;;;11.00;87.25
18201;BME280;9226;47.858;9.594;2023-04-24T00:20:00;94354.22;;;10.95;87.51
18201;BME280;9226;47.858;9.594;2023-04-24T00:22:26;94357.53;;;10.97;87.29
18201;BME280;9226;47.858;9.594;2023-04-24T00:24:52;94357.03;;;10.93;87.57
18201;BME280;9226;47.858;9.594;2023-04-24T00:27:18;94355.72;;;10.97;87.41
18201;BME280;9226;47.858;9.594;2023-04-24T00:29:43;94345.59;;;10.93;87.97
18201;BME280;9226;47.858;9.594;2023-04-24T00:32:08;94336.94;;;10.91;87.78
18201;BME280;9226;47.858;9.594;2023-04-24T00:34:34;94339.31;;;10.76;89.23
18201;BME280;9226;47.858;9.594;2023-04-24T00:36:59;94350.28;;;10.81;88.47
18201;BME280;9226;47.858;9.594;2023-04-24T00:39:25;94346.59;;;10.74;89.40
18201;BME280;9226;47.858;9.594;2023-04-24T00:41:50;94342.25;;;10.73;89.71
18201;BME280;9226;47.858;9.594;2023-04-24T00:44:16;94343.38;;;10.70;89.72
18201;BME280;9226;47.858;9.594;2023-04-24T00:46:42;94335.75;;;10.67;90.09
18201;BME280;9226;47.858;9.594;2023-04-24T00:49:08;94337.25;;;10.70;89.84
18201;BME280;9226;47.858;9.594;2023-04-24T00:51:33;94335.66;;;10.77;88.78
18201;BME280;9226;47.858;9.594;2023-04-24T00:54:00;94339.97;;;10.78;88.76
18201;BME280;9226;47.858;9.594;2023-04-24T00:56:25;94330.34;;;10.77;88.93
18201;BME280;9226;47.858;9.594;2023-04-24T00:58:51;94336.97;;;10.73;88.87
18201;BME280;9226;47.858;9.594;2023-04-24T01:01:19;94342.63;;;10.78;88.34
18201;BME280;9226;47.858;9.594;2023-04-24T01:03:46;94332.47;;;10.73;88.26
18201;BME280;9226;47.858;9.594;2023-04-24T01:06:11;94335.34;;;10.80;87.83
18201;BME280;9226;47.858;9.594;2023-04-24T01:08:38;94330.91;;;10.80;87.64
18201;BME280;9226;47.858;9.594;2023-04-24T01:11:04;94328.78;;;10.66;89.14
18201;BME280;9226;47.858;9.594;2023-04-24T01:13:31;94325.91;;;10.77;87.86
18201;BME280;9226;47.858;9.594;2023-04-24T01:15:57;94327.03;;;10.75;87.92
18201;BME280;9226;47.858;9.594;2023-04-24T01:18:22;94321.59;;;10.58;89.36
18201;BME280;9226;47.858;9.594;2023-04-24T01:20:49;94327.19;;;10.55;89.56
18201;BME280;9226;47.858;9.594;2023-04-24T01:23:16;94326.19;;;10.56;89.75
18201;BME280;9226;47.858;9.594;2023-04-24T01:25:42;94324.09;;;10.60;89.34
18201;BME280;9226;47.858;9.594;2023-04-24T01:28:08;94327.34;;;10.54;89.94
18201;BME280;9226;47.858;9.594;2023-04-24T01:30:33;94322.78;;;10.46;90.68
18201;BME280;9226;47.858;9.594;2023-04-24T01:32:59;94326.13;;;10.48;90.82
18201;BME280;9226;47.858;9.594;2023-04-24T01:35:25;94330.81;;;10.54;90.05
18201;BME280;9226;47.858;9.594;2023-04-24T01:37:51;94331.13;;;10.51;90.32
18201;BME280;9226;47.858;9.594;2023-04-24T01:40:17;94323.63;;;10.46;90.61
18201;BME280;9226;47.858;9.594;2023-04-24T01:42:42;94319.16;;;10.47;90.59
18201;BME280;9226;47.858;9.594;2023-04-24T01:45:10;94318.72;;;10.52;90.09
18201;BME280;9226;47.858;9.594;2023-04-24T01:47:36;94317.19;;;10.49;90.12
18201;BME280;9226;47.858;9.594;2023-04-24T01:50:02;94315.72;;;10.55;89.39
18201;BME280;9226;47.858;9.594;2023-04-24T01:52:27;94312.88;;;10.48;89.98
18201;BME280;9226;47.858;9.594;2023-04-24T01:54:56;94318.00;;;10.49;89.71
18201;BME280;9226;47.858;9.594;2023-04-24T01:57:22;94306.66;;;10.39;90.41
18201;BME280;9226;47.858;9.594;2023-04-24T01:59:47;94303.41;;;10.45;90.16
18201;BME280;9226;47.858;9.594;2023-04-24T02:02:13;94314.78;;;10.38;90.63
18201;BME280;9226;47.858;9.594;2023-04-24T02:04:39;94310.94;;;10.22;91.85
18201;BME280;9226;47.858;9.594;2023-04-24T02:07:04;94312.63;;;10.23;91.52
18201;BME280;9226;47.858;9.594;2023-04-24T02:09:30;94311.72;;;10.32;90.86
18201;BME280;9226;47.858;9.594;2023-04-24T02:11:55;94307.63;;;10.20;91.94
18201;BME280;9226;47.858;9.594;2023-04-24T02:14:21;94310.13;;;10.22;91.57
18201;BME280;9226;47.858;9.594;2023-04-24T02:16:46;94311.88;;;10.31;91.05
18201;BME280;9226;47.858;9.594;2023-04-24T02:19:12;94315.63;;;10.28;90.74
18201;BME280;9226;47.858;9.594;2023-04-24T02:21:37;94311.75;;;10.23;91.08
18201;BME280;9226;47.858;9.594;2023-04-24T02:24:03;94319.72;;;10.23;91.14
18201;BME280;9226;47.858;9.594;2023-04-24T02:26:28;94315.94;;;10.25;90.94
18201;BME280;9226;47.858;9.594;2023-04-24T02:28:53;94313.75;;;10.21;91.00
18201;BME280;9226;47.858;9.594;2023-04-24T02:31:19;94316.91;;;10.24;90.81
18201;BME280;9226;47.858;9.594;2023-04-24T02:33:44;94314.84;;;10.18;91.21
18201;BME280;9226;47.858;9.594;2023-04-24T02:36:09;94325.28;;;10.29;90.01
18201;BME280;9226;47.858;9.594;2023-04-24T02:38:35;94321.63;;;10.30;89.77
18201;BME280;9226;47.858;9.594;2023-04-24T02:41:00;94325.13;;;10.31;89.35
18201;BME280;9226;47.858;9.594;2023-04-24T02:43:27;94324.34;;;10.21;89.43
18201;BME280;9226;47.858;9.594;2023-04-24T02:45:52;94333.53;;;10.26;89.11
18201;BME280;9226;47.858;9.594;2023-04-24T02:48:18;94331.53;;;10.28;89.06
18201;BME280;9226;47.858;9.594;2023-04-24T02:50:44;94332.31;;;10.39;87.32
18201;BME280;9226;47.858;9.594;2023-04-24T02:53:10;94334.00;;;10.40;87.49
18201;BME280;9226;47.858;9.594;2023-04-24T02:55:35;94333.25;;;10.20;86.98
18201;BME280;9226;47.858;9.594;2023-04-24T02:58:01;94326.91;;;10.30;86.31
18201;BME280;9226;47.858;9.594;2023-04-24T03:00:26;94325.00;;;10.23;86.62
18201;BME280;9226;47.858;9.594;2023-04-24T03:02:51;94326.53;;;10.25;86.03
18201;BME280;9226;47.858;9.594;2023-04-24T03:05:18;94324.88;;;10.24;85.70
18201;BME280;9226;47.858;9.594;2023-04-24T03:07:43;94314.25;;;10.24;85.48
18201;BME280;9226;47.858;9.594;2023-04-24T03:10:09;94316.25;;;10.22;86.06
18201;BME280;9226;47.858;9.594;2023-04-24T03:12:34;94313.22;;;10.17;86.19
18201;BME280;9226;47.858;9.594;2023-04-24T03:15:00;94311.75;;;10.23;85.61
18201;BME280;9226;47.858;9.594;2023-04-24T03:17:25;94314.19;;;10.16;86.06
18201;BME280;9226;47.858;9.594;2023-04-24T03:19:51;94322.72;;;10.10;86.00
18201;BME280;9226;47.858;9.594;2023-04-24T03:22:16;94305.84;;;10.11;86.35
18201;BME280;9226;47.858;9.594;2023-04-24T03:24:41;94308.44;;;10.03;86.55
18201;BME280;9226;47.858;9.594;2023-04-24T03:27:07;94314.84;;;10.00;86.55
18201;BME280;9226;47.858;9.594;2023-04-24T03:29:32;94321.38;;;10.06;86.39
18201;BME280;9226;47.858;9.594;2023-04-24T03:31:58;94325.38;;;10.10;86.41
18201;BME280;9226;47.858;9.594;2023-04-24T03:34:23;94323.75;;;10.09;86.16
18201;BME280;9226;47.858;9.594;2023-04-24T03:36:48;94321.31;;;10.16;85.99
18201;BME280;9226;47.858;9.594;2023-04-24T03:39:14;94325.59;;;9.99;85.85
18201;BME280;9226;47.858;9.594;2023-04-24T03:41:39;94326.97;;;10.03;85.94
18201;BME280;9226;47.858;9.594;2023-04-24T03:44:05;94325.88;;;9.95;86.75
18201;BME280;9226;47.858;9.594;2023-04-24T03:46:30;94323.53;;;9.92;87.32
18201;BME280;9226;47.858;9.594;2023-04-24T03:48:56;94323.84;;;9.89;87.75
18201;BME280;9226;47.858;9.594;2023-04-24T03:51:21;94320.34;;;9.89;87.87
18201;BME280;9226;47.858;9.594;2023-04-24T03:53:48;94317.19;;;9.85;88.39
18201;BME280;9226;47.858;9.594;2023-04-24T03:56:13;94317.63;;;9.81;88.89
18201;BME280;9226;47.858;9.594;2023-04-24T03:58:39;94314.91;;;9.90;88.32
18201;BME280;9226;47.858;9.594;2023-04-24T04:01:04;94321.81;;;9.73;88.47
18201;BME280;9226;47.858;9.594;2023-04-24T04:03:30;94328.44;;;9.87;87.51
18201;BME280;9226;47.858;9.594;2023-04-24T04:05:56;94335.31;;;9.80;87.60
18201;BME280;9226;47.858;9.594;2023-04-24T04:08:21;94331.63;;;9.91;86.76
18201;BME280;9226;47.858;9.594;2023-04-24T04:10:47;94329.94;;;10.00;86.31
18201;BME280;9226;47.858;9.594;2023-04-24T04:13:12;94338.47;;;9.93;85.95
18201;BME280;9226;47.858;9.594;2023-04-24T04:15:38;94344.88;;;9.91;85.60
18201;BME280;9226;47.858;9.594;2023-04-24T04:18:04;94352.09;;;9.99;85.23
18201;BME280;9226;47.858;9.594;2023-04-24T04:20:30;94348.56;;;10.08;84.55
18201;BME280;9226;47.858;9.594;2023-04-24T04:22:55;94349.94;;;9.84;85.02
18201;BME280;9226;47.858;9.594;2023-04-24T04:25:21;94350.72;;;9.94;85.30
18201;BME280;9226;47.858;9.594;2023-04-24T04:27:48;94341.03;;;9.85;84.79
18201;BME280;9226;47.858;9.594;2023-04-24T04:30:13;94348.06;;;9.94;84.40
18201;BME280;9226;47.858;9.594;2023-04-24T04:32:39;94348.47;;;10.00;83.90
18201;BME280;9226;47.858;9.594;2023-04-24T04:35:04;94350.13;;;10.01;83.42
18201;BME280;9226;47.858;9.594;2023-04-24T04:37:31;94356.13;;;10.03;83.51
18201;BME280;9226;47.858;9.594;2023-04-24T04:39:57;94350.97;;;10.01;83.35
18201;BME280;9226;47.858;9.594;2023-04-24T04:42:24;94348.91;;;9.95;83.03
18201;BME280;9226;47.858;9.594;2023-04-24T04:44:49;94350.91;;;10.11;82.63
18201;BME280;9226;47.858;9.594;2023-04-24T04:47:16;94361.44;;;10.03;82.63
18201;BME280;9226;47.858;9.594;2023-04-24T04:49:43;94359.50;;;9.95;82.36
18201;BME280;9226;47.858;9.594;2023-04-24T04:52:09;94368.53;;;10.02;82.55
18201;BME280;9226;47.858;9.594;2023-04-24T04:54:34;94360.88;;;9.99;82.03
18201;BME280;9226;47.858;9.594;2023-04-24T04:56:59;94359.16;;;9.80;82.17
18201;BME280;9226;47.858;9.594;2023-04-24T04:59:26;94367.16;;;9.98;82.17
18201;BME280;9226;47.858;9.594;2023-04-24T05:01:52;94372.75;;;9.95;82.61
18201;BME280;9226;47.858;9.594;2023-04-24T05:04:17;94372.94;;;10.11;82.01
18201;BME280;9226;47.858;9.594;2023-04-24T05:06:43;94381.31;;;10.07;82.02
18201;BME280;9226;47.858;9.594;2023-04-24T05:09:08;94379.38;;;10.09;82.11
18201;BME280;9226;47.858;9.594;2023-04-24T05:11:34;94376.75;;;9.99;81.52
18201;BME280;9226;47.858;9.594;2023-04-24T05:14:00;94388.16;;;10.09;81.80
18201;BME280;9226;47.858;9.594;2023-04-24T05:16:26;94387.50;;;9.98;82.67
18201;BME280;9226;47.858;9.594;2023-04-24T05:18:51;94393.00;;;9.86;83.27
18201;BME280;9226;47.858;9.594;2023-04-24T05:21:16;94399.25;;;9.95;83.32
18201;BME280;9226;47.858;9.594;2023-04-24T05:23:42;94398.81;;;10.00;82.73
18201;BME280;9226;47.858;9.594;2023-04-24T05:26:07;94399.19;;;10.05;82.69
18201;BME280;9226;47.858;9.594;2023-04-24T05:28:33;94405.56;;;10.12;82.43
18201;BME280;9226;47.858;9.594;2023-04-24T05:30:58;94411.72;;;10.12;82.41
18201;BME280;9226;47.858;9.594;2023-04-24T05:33:24;94410.47;;;10.07;82.49
18201;BME280;9226;47.858;9.594;2023-04-24T05:35:50;94421.59;;;10.20;82.30
18201;BME280;9226;47.858;9.594;2023-04-24T05:38:15;94426.03;;;10.20;82.70
18201;BME280;9226;47.858;9.594;2023-04-24T05:40:44;94420.19;;;10.16;82.58
18201;BME280;9226;47.858;9.594;2023-04-24T05:43:10;94431.78;;;10.15;83.19
18201;BME280;9226;47.858;9.594;2023-04-24T05:45:35;94424.03;;;10.04;83.27
18201;BME280;9226;47.858;9.594;2023-04-24T05:48:02;94423.81;;;10.15;82.87
18201;BME280;9226;47.858;9.594;2023-04-24T05:50:27;94428.59;;;10.11;83.60
18201;BME280;9226;47.858;9.594;2023-04-24T05:52:53;94440.91;;;10.03;83.89
18201;BME280;9226;47.858;9.594;2023-04-24T05:55:18;94434.63;;;10.04;84.42
18201;BME280;9226;47.858;9.594;2023-04-24T05:57:44;94437.69;;;10.09;84.76
18201;BME280;9226;47.858;9.594;2023-04-24T06:00:10;94447.94;;;10.22;83.91
18201;BME280;9226;47.858;9.594;2023-04-24T06:02:37;94453.78;;;10.25;83.77
18201;BME280;9226;47.858;9.594;2023-04-24T06:05:03;94459.38;;;10.22;84.01
18201;BME280;9226;47.858;9.594;2023-04-24T06:07:30;94464.69;;;10.22;83.86
18201;BME280;9226;47.858;9.594;2023-04-24T06:09:56;94451.63;;;10.11;83.81
18201;BME280;9226;47.858;9.594;2023-04-24T06:12:22;94435.91;;;10.00;84.26
18201;BME280;9226;47.858;9.594;2023-04-24T06:14:47;94438.00;;;9.96;84.64
18201;BME280;9226;47.858;9.594;2023-04-24T06:17:13;94436.09;;;9.88;84.68
18201;BME280;9226;47.858;9.594;2023-04-24T06:19:38;94433.84;;;9.93;84.51
18201;BME280;9226;47.858;9.594;2023-04-24T06:22:04;94434.72;;;9.84;85.30
18201;BME280;9226;47.858;9.594;2023-04-24T06:24:29;94432.13;;;10.02;84.52
18201;BME280;9226;47.858;9.594;2023-04-24T06:26:55;94436.09;;;9.88;84.99
18201;BME280;9226;47.858;9.594;2023-04-24T06:29:22;94431.97;;;10.04;84.28
18201;BME280;9226;47.858;9.594;2023-04-24T06:31:47;94435.56;;;10.12;84.09
18201;BME280;9226;47.858;9.594;2023-04-24T06:34:13;94445.16;;;10.13;84.02
18201;BME280;9226;47.858;9.594;2023-04-24T06:36:38;94451.81;;;10.27;83.88
18201;BME280;9226;47.858;9.594;2023-04-24T06:39:03;94452.63;;;10.38;83.47
18201;BME280;9226;47.858;9.594;2023-04-24T06:41:29;94465.47;;;10.42;84.01
18201;BME280;9226;47.858;9.594;2023-04-24T06:43:55;94460.84;;;10.62;83.10
18201;BME280;9226;47.858;9.594;2023-04-24T06:46:20;94469.09;;;10.87;83.05
18201;BME280;9226;47.858;9.594;2023-04-24T06:48:49;94470.06;;;11.22;81.38
18201;BME280;9226;47.858;9.594;2023-04-24T06:51:15;94476.72;;;11.44;79.63
18201;BME280;9226;47.858;9.594;2023-04-24T06:53:42;94477.25;;;11.92;80.46
18201;BME280;9226;47.858;9.594;2023-04-24T06:56:08;94472.56;;;12.12;76.09
18201;BME280;9226;47.858;9.594;2023-04-24T06:58:33;94481.53;;;12.45;74.94
18201;BME280;9226;47.858;9.594;2023-04-24T07:00:59;94489.69;;;12.52;73.71
18201;BME280;9226;47.858;9.594;2023-04-24T07:03:24;94490.75;;;12.59;72.64
18201;BME280;9226;47.858;9.594;2023-04-24T07:05:49;94494.91;;;12.62;72.98
18201;BME280;9226;47.858;9.594;2023-04-24T07:08:15;94504.88;;;12.60;72.94
18201;BME280;9226;47.858;9.594;2023-04-24T07:10:42;94506.34;;;13.05;75.00
18201;BME280;9226;47.858;9.594;2023-04-24T07:13:08;94507.25;;;13.47;73.26
18201;BME280;9226;47.858;9.594;2023-04-24T07:15:33;94505.69;;;14.35;68.20
18201;BME280;9226;47.858;9.594;2023-04-24T07:17:59;94501.44;;;15.05;68.70
18201;BME280;9226;47.858;9.594;2023-04-24T07:20:25;94494.13;;;15.53;62.94
18201;BME280;9226;47.858;9.594;2023-04-24T07:22:51;94500.97;;;16.17;63.22
18201;BME280;9226;47.858;9.594;2023-04-24T07:25:17;94505.94;;;16.35;58.42
18201;BME280;9226;47.858;9.594;2023-04-24T07:27:42;94504.66;;;17.05;61.55
18201;BME280;9226;47.858;9.594;2023-04-24T07:30:08;94502.19;;;17.40;56.33
18201;BME280;9226;47.858;9.594;2023-04-24T07:32:33;94500.78;;;17.66;54.78
18201;BME280;9226;47.858;9.594;2023-04-24T07:35:00;94506.34;;;18.36;55.42
18201;BME280;9226;47.858;9.594;2023-04-24T07:37:25;94504.91;;;18.68;50.59
18201;BME280;9226;47.858;9.594;2023-04-24T07:39:51;94500.44;;;20.05;53.04
18201;BME280;9226;47.858;9.594;2023-04-24T07:42:16;94493.75;;;20.68;49.54
18201;BME280;9226;47.858;9.594;2023-04-24T07:44:42;94495.16;;;21.49;46.14
18201;BME280;9226;47.858;9.594;2023-04-24T07:47:07;94501.00;;;21.78;44.63
18201;BME280;9226;47.858;9.594;2023-04-24T07:49:33;94498.19;;;22.92;44.96
18201;BME280;9226;47.858;9.594;2023-04-24T07:52:00;94499.97;;;22.80;39.77
18201;BME280;9226;47.858;9.594;2023-04-24T07:54:27;94506.09;;;22.25;40.72
18201;BME280;9226;47.858;9.594;2023-04-24T07:56:52;94501.81;;;21.40;40.08
18201;BME280;9226;47.858;9.594;2023-04-24T07:59:17;94499.22;;;21.13;41.77
18201;BME280;9226;47.858;9.594;2023-04-24T08:01:43;94503.59;;;21.60;42.01
18201;BME280;9226;47.858;9.594;2023-04-24T08:04:09;94496.38;;;21.54;42.75
18201;BME280;9226;47.858;9.594;2023-04-24T08:06:34;94498.28;;;20.88;42.69
18201;BME280;9226;47.858;9.594;2023-04-24T08:09:00;94498.94;;;20.70;43.96
18201;BME280;9226;47.858;9.594;2023-04-24T08:11:25;94497.47;;;20.54;44.87
18201;BME280;9226;47.858;9.594;2023-04-24T08:13:51;94514.91;;;19.91;44.65
18201;BME280;9226;47.858;9.594;2023-04-24T08:16:17;94513.88;;;19.17;44.64
18201;BME280;9226;47.858;9.594;2023-04-24T08:18:42;94525.59;;;18.39;45.26
18201;BME280;9226;47.858;9.594;2023-04-24T08:21:07;94522.22;;;17.66;46.50
18201;BME280;9226;47.858;9.594;2023-04-24T08:23:33;94516.78;;;17.38;48.42
18201;BME280;9226;47.858;9.594;2023-04-24T08:25:58;94514.81;;;17.46;49.73
18201;BME280;9226;47.858;9.594;2023-04-24T08:28:24;94512.59;;;17.93;50.31
18201;BME280;9226;47.858;9.594;2023-04-24T08:30:49;94508.38;;;18.62;51.32
18201;BME280;9226;47.858;9.594;2023-04-24T08:33:21;94516.88;;;19.62;48.12
18201;BME280;9226;47.858;9.594;2023-04-24T08:35:46;94511.41;;;20.04;45.00
18201;BME280;9226;47.858;9.594;2023-04-24T08:38:12;94514.94;;;20.18;42.63
18201;BME280;9226;47.858;9.594;2023-04-24T08:40:37;94525.03;;;19.89;43.43
18201;BME280;9226;47.858;9.594;2023-04-24T08:43:03;94524.44;;;19.94;43.99
18201;BME280;9226;47.858;9.594;2023-04-24T08:45:29;94533.13;;;19.27;44.52
18201;BME280;9226;47.858;9.594;2023-04-24T08:47:55;94531.56;;;18.98;45.49
18201;BME280;9226;47.858;9.594;2023-04-24T08:50:21;94539.00;;;18.68;46.02
18201;BME280;9226;47.858;9.594;2023-04-24T08:52:50;94538.84;;;18.19;45.80
18201;BME280;9226;47.858;9.594;2023-04-24T08:55:16;94541.38;;;17.41;47.16
18201;BME280;9226;47.858;9.594;2023-04-24T08:57:45;94545.56;;;17.14;47.96
18201;BME280;9226;47.858;9.594;2023-04-24T09:00:11;94550.66;;;16.64;50.04
18201;BME280;9226;47.858;9.594;2023-04-24T09:02:41;94545.03;;;16.89;50.46
18201;BME280;9226;47.858;9.594;2023-04-24T09:05:07;94543.16;;;17.34;50.67
18201;BME280;9226;47.858;9.594;2023-04-24T09:07:35;94546.16;;;17.82;50.57
18201;BME280;9226;47.858;9.594;2023-04-24T09:10:02;94552.09;;;18.77;49.32
18201;BME280;9226;47.858;9.594;2023-04-24T09:12:28;94549.16;;;19.56;46.07
18201;BME280;9226;47.858;9.594;2023-04-24T09:17:20;94550.16;;;21.94;42.35
18201;BME280;9226;47.858;9.594;2023-04-24T09:19:48;94553.63;;;22.83;40.29
18201;BME280;9226;47.858;9.594;2023-04-24T09:22:13;94546.19;;;23.41;37.45
18201;BME280;9226;47.858;9.594;2023-04-24T09:24:40;94549.41;;;23.98;34.61
18201;BME280;9226;47.858;9.594;2023-04-24T09:27:06;94542.78;;;24.36;35.14
18201;BME280;9226;47.858;9.594;2023-04-24T09:29:32;94549.19;;;24.54;34.91
18201;BME280;9226;47.858;9.594;2023-04-24T09:31:58;94547.47;;;24.71;33.16
18201;BME280;9226;47.858;9.594;2023-04-24T09:34:25;94559.97;;;24.61;33.74
18201;BME280;9226;47.858;9.594;2023-04-24T09:36:54;94557.16;;;24.25;33.48
18201;BME280;9226;47.858;9.594;2023-04-24T09:39:19;94551.47;;;23.84;33.11
18201;BME280;9226;47.858;9.594;2023-04-24T09:44:16;94555.66;;;22.44;33.86
18201;BME280;9226;47.858;9.594;2023-04-24T09:46:44;94555.00;;;21.78;34.66
18201;BME280;9226;47.858;9.594;2023-04-24T09:49:14;94551.94;;;21.03;35.30
18201;BME280;9226;47.858;9.594;2023-04-24T09:51:40;94552.41;;;20.86;36.39
18201;BME280;9226;47.858;9.594;2023-04-24T09:54:19;94555.94;;;20.20;36.88
18201;BME280;9226;47.858;9.594;2023-04-24T09:56:48;94562.31;;;19.85;37.49
18201;BME280;9226;47.858;9.594;2023-04-24T09:59:16;94558.56;;;19.25;38.08
18201;BME280;9226;47.858;9.594;2023-04-24T10:01:42;94560.75;;;18.73;38.77
18201;BME280;9226;47.858;9.594;2023-04-24T10:04:20;94572.44;;;18.37;39.20
18201;BME280;9226;47.858;9.594;2023-04-24T10:06:47;94579.31;;;18.18;39.51
18201;BME280;9226;47.858;9.594;2023-04-24T10:09:14;94574.44;;;17.48;40.80
18201;BME280;9226;47.858;9.594;2023-04-24T10:11:45;94580.97;;;17.24;42.03
18201;BME280;9226;47.858;9.594;2023-04-24T10:14:13;94575.81;;;17.08;42.14
18201;BME280;9226;47.858;9.594;2023-04-24T10:16:39;94575.50;;;17.32;42.47
18201;BME280;9226;47.858;9.594;2023-04-24T10:19:06;94562.84;;;17.41;41.58
18201;BME280;9226;47.858;9.594;2023-04-24T10:21:32;94580.94;;;17.90;40.42
18201;BME280;9226;47.858;9.594;2023-04-24T10:23:59;94571.13;;;18.26;39.95
18201;BME280;9226;47.858;9.594;2023-04-24T10:26:28;94580.84;;;18.27;38.32
18201;BME280;9226;47.858;9.594;2023-04-24T10:28:57;94581.66;;;18.49;38.53
18201;BME280;9226;47.858;9.594;2023-04-24T10:31:24;94575.06;;;18.52;38.19
18201;BME280;9226;47.858;9.594;2023-04-24T10:33:51;94584.91;;;18.73;37.96
18201;BME280;9226;47.858;9.594;2023-04-24T10:36:17;94581.44;;;18.79;37.04
18201;BME280;9226;47.858;9.594;2023-04-24T10:38:45;94588.13;;;18.33;35.51
18201;BME280;9226;47.858;9.594;2023-04-24T10:41:12;94575.88;;;18.80;35.67
18201;BME280;9226;47.858;9.594;2023-04-24T10:43:44;94581.66;;;19.06;35.41
18201;BME280;9226;47.858;9.594;2023-04-24T10:46:16;94575.28;;;19.68;34.58
18201;BME280;9226;47.858;9.594;2023-04-24T10:48:52;94582.81;;;19.80;34.29
18201;BME280;9226;47.858;9.594;2023-04-24T10:51:22;94577.44;;;20.00;33.54
18201;BME280;9226;47.858;9.594;2023-04-24T10:53:49;94586.63;;;20.72;33.62
18201;BME280;9226;47.858;9.594;2023-04-24T10:56:16;94579.75;;;21.10;33.02
18201;BME280;9226;47.858;9.594;2023-04-24T10:58:45;94583.47;;;21.81;32.87
18201;BME280;9226;47.858;9.594;2023-04-24T11:01:37;94598.97;;;21.92;31.48
18201;BME280;9226;47.858;9.594;2023-04-24T11:04:03;94593.94;;;22.34;31.62
18201;BME280;9226;47.858;9.594;2023-04-24T11:09:01;94603.16;;;22.20;30.23
18201;BME280;9226;47.858;9.594;2023-04-24T11:11:30;94603.53;;;21.92;30.56
18201;BME280;9226;47.858;9.594;2023-04-24T11:16:31;94598.19;;;21.20;29.65
18201;BME280;9226;47.858;9.594;2023-04-24T11:19:18;94597.22;;;20.67;29.36
18201;BME280;9226;47.858;9.594;2023-04-24T11:21:44;94600.31;;;20.57;29.97
18201;BME280;9226;47.858;9.594;2023-04-24T11:27:05;94602.66;;;19.79;31.14
18201;BME280;9226;47.858;9.594;2023-04-24T11:29:44;94610.19;;;20.03;31.48
18201;BME280;9226;47.858;9.594;2023-04-24T11:34:48;94597.78;;;19.54;31.97
18201;BME280;9226;47.858;9.594;2023-04-24T11:37:14;94601.97;;;19.63;32.12
18201;BME280;9226;47.858;9.594;2023-04-24T11:39:40;94607.31;;;19.50;31.12
18201;BME280;9226;47.858;9.594;2023-04-24T11:42:07;94599.09;;;19.23;31.03
18201;BME280;9226;47.858;9.594;2023-04-24T11:44:33;94610.50;;;19.25;30.90
18201;BME280;9226;47.858;9.594;2023-04-24T11:46:59;94594.81;;;19.01;30.25
18201;BME280;9226;47.858;9.594;2023-04-24T11:49:25;94607.41;;;19.28;31.28
18201;BME280;9226;47.858;9.594;2023-04-24T11:51:55;94604.88;;;19.20;31.36
18201;BME280;9226;47.858;9.594;2023-04-24T11:54:20;94603.63;;;18.88;31.50
18201;BME280;9226;47.858;9.594;2023-04-24T11:56:49;94616.53;;;18.71;31.79
18201;BME280;9226;47.858;9.594;2023-04-24T11:59:14;94615.25;;;18.67;32.15
18201;BME280;9226;47.858;9.594;2023-04-24T12:01:46;94614.09;;;18.76;32.45
18201;BME280;9226;47.858;9.594;2023-04-24T12:04:13;94616.88;;;18.89;33.13
18201;BME280;9226;47.858;9.594;2023-04-24T12:06:39;94603.94;;;19.00;33.59
18201;BME280;9226;47.858;9.594;2023-04-24T12:09:04;94614.47;;;18.94;32.86
18201;BME280;9226;47.858;9.594;2023-04-24T12:11:30;94608.28;;;19.01;32.26
18201;BME280;9226;47.858;9.594;2023-04-24T12:13:55;94621.78;;;19.07;32.24
18201;BME280;9226;47.858;9.594;2023-04-24T12:16:21;94617.56;;;18.70;32.59
18201;BME280;9226;47.858;9.594;2023-04-24T12:18:46;94609.91;;;18.73;32.19
18201;BME280;9226;47.858;9.594;2023-04-24T12:21:19;94623.56;;;18.72;33.03
18201;BME280;9226;47.858;9.594;2023-04-24T12:23:45;94620.38;;;18.61;33.46
18201;BME280;9226;47.858;9.594;2023-04-24T12:26:12;94619.81;;;18.44;32.71
18201;BME280;9226;47.858;9.594;2023-04-24T12:28:38;94618.09;;;18.37;32.96
18201;BME280;9226;47.858;9.594;2023-04-24T12:31:04;94616.97;;;18.24;33.25
18201;BME280;9226;47.858;9.594;2023-04-24T12:33:33;94614.97;;;18.33;33.27
18201;BME280;9226;47.858;9.594;2023-04-24T12:35:59;94621.44;;;18.17;32.26
18201;BME280;9226;47.858;9.594;2023-04-24T12:38:27;94631.28;;;18.10;32.30
18201;BME280;9226;47.858;9.594;2023-04-24T12:43:29;94614.13;;;17.89;32.90
18201;BME280;9226;47.858;9.594;2023-04-24T12:45:54;94617.34;;;17.85;32.94
18201;BME280;9226;47.858;9.594;2023-04-24T12:48:20;94614.47;;;17.86;33.88
18201;BME280;9226;47.858;9.594;2023-04-24T12:50:46;94612.25;;;18.05;34.22
18201;BME280;9226;47.858;9.594;2023-04-24T12:53:11;94606.44;;;17.86;33.71
18201;BME280;9226;47.858;9.594;2023-04-24T12:55:37;94617.25;;;17.93;34.70
18201;BME280;9226;47.858;9.594;2023-04-24T12:58:02;94618.25;;;18.07;34.25
18201;BME280;9226;47.858;9.594;2023-04-24T13:00:28;94627.56;;;18.11;34.58
18201;BME280;9226;47.858;9.594;2023-04-24T13:02:53;94618.50;;;17.90;33.79
18201;BME280;9226;47.858;9.594;2023-04-24T13:05:19;94627.28;;;17.84;33.96
18201;BME280;9226;47.858;9.594;2023-04-24T13:07:45;94623.94;;;17.82;34.38
18201;BME280;9226;47.858;9.594;2023-04-24T13:10:10;94629.41;;;17.74;34.61
18201;BME280;9226;47.858;9.594;2023-04-24T13:12:36;94632.78;;;17.61;34.96
18201;BME280;9226;47.858;9.594;2023-04-24T13:15:02;94628.84;;;17.79;35.41
18201;BME280;9226;47.858;9.594;2023-04-24T13:17:28;94634.84;;;17.96;36.12
18201;BME280;9226;47.858;9.594;2023-04-24T13:19:54;94638.44;;;18.24;35.88
18201;BME280;9226;47.858;9.594;2023-04-24T13:22:19;94630.66;;;18.58;35.75
18201;BME280;9226;47.858;9.594;2023-04-24T13:24:45;94637.63;;;18.74;35.38